Airfield :
LOGIN :

Register | Disclaimer

   EN    FR    IT 

 










Legend :    VFR   Marginal VFR   IFR   Intensive IFR   Very Intensive IFR
Visi :
Ceiling :
>= 8 km
>= 3000ft
5 to 8 km
1000 to 3000 ft
1500m to 5 km
500 to 1000 ft
800 to 1500m
200 to 500 ft
< 800m
< 200 ft
Symbols :   Thunderstorms  Fog  Heavy snow  Heavy precipitations  Wind > 20 kt
SIGMETs :     Misc.  Thunderstorms  Icing  Turbulence  Mountain Waves  Volcanic Ashes






- Airport Elevation : 788 ft
- IATA code : DCM


LFCK - Castres-Mazamet

CURRENT METAR :
  • 251000Z AUTO 12026KT CAVOK 16/09 Q1015 TEMPO 13024G37KT

EXPIRED METARs :
  • 250930Z AUTO 13026G37KT CAVOK 15/09 Q1015 NOSIG
  • 250900Z AUTO 13025G37KT CAVOK 15/09 Q1015 NOSIG
  • 250830Z AUTO 13024G35KT CAVOK 15/08 Q1015 NOSIG
  • 250800Z AUTO 13024G34KT CAVOK 14/08 Q1015 NOSIG
  • 250730Z AUTO 12024KT CAVOK 14/09 Q1015 TEMPO 13022G35KT

TAF TAF LFCK
Valid from the 25 at 09:00 until the 25 at 18:00 UTC


250800Z 2509/2518 12020KT CAVOK
TEMPO 2509/2518 13024G37KT



MET'MAP, your aeronautical weather chart ! - Copyright ORBIFLY December 2007 - Disclaimer

ORBIFLY MET'MAP TEAM :

Programming & Development : Alexandra Zaïnal
Concept & original design : Baudouin d'Aumeries
Assistance for programming : Marc-Olivier Méhu
Technical & hardware support : Manuel Goepfert

Contact : metmap@orbifly.com




SOURCES & CREDITS :

   NOAA